sensor_id;sensor_type;location;lat;lon;timestamp;pressure;altitude;pressure_sealevel;temperature;humidity
43119;BME280;28729;49.838;8.650;2023-01-08T00:00:26;99111.97;;;10.16;100.00
43119;BME280;28729;49.838;8.650;2023-01-08T00:04:29;99111.81;;;10.28;100.00
43119;BME280;28729;49.838;8.650;2023-01-08T00:08:31;99101.63;;;10.29;99.99
43119;BME280;28729;49.838;8.650;2023-01-08T00:12:33;99098.66;;;10.40;99.03
43119;BME280;28729;49.838;8.650;2023-01-08T00:16:35;99079.38;;;10.40;98.99
43119;BME280;28729;49.838;8.650;2023-01-08T00:20:40;99069.22;;;10.46;98.57
43119;BME280;28729;49.838;8.650;2023-01-08T00:24:42;99063.72;;;10.46;97.45
43119;BME280;28729;49.838;8.650;2023-01-08T00:28:44;99059.63;;;10.54;96.59
43119;BME280;28729;49.838;8.650;2023-01-08T00:32:45;99045.31;;;10.62;95.97
43119;BME280;28729;49.838;8.650;2023-01-08T00:36:47;99042.59;;;10.67;96.37
43119;BME280;28729;49.838;8.650;2023-01-08T00:40:49;99035.47;;;10.71;95.89
43119;BME280;28729;49.838;8.650;2023-01-08T00:44:50;99043.19;;;10.74;96.23
43119;BME280;28729;49.838;8.650;2023-01-08T00:48:52;99026.38;;;10.76;95.70
43119;BME280;28729;49.838;8.650;2023-01-08T00:52:54;99027.78;;;10.83;95.03
43119;BME280;28729;49.838;8.650;2023-01-08T00:56:55;99023.66;;;10.91;94.85
43119;BME280;28729;49.838;8.650;2023-01-08T01:00:58;99015.41;;;10.96;94.55
43119;BME280;28729;49.838;8.650;2023-01-08T01:04:59;99009.94;;;11.01;94.74
43119;BME280;28729;49.838;8.650;2023-01-08T01:09:01;99009.09;;;11.01;94.76
43119;BME280;28729;49.838;8.650;2023-01-08T01:13:02;99004.41;;;11.06;94.89
43119;BME280;28729;49.838;8.650;2023-01-08T01:17:04;99004.69;;;11.15;94.21
43119;BME280;28729;49.838;8.650;2023-01-08T01:21:23;99014.09;;;11.19;94.14
43119;BME280;28729;49.838;8.650;2023-01-08T01:25:25;99027.06;;;11.24;93.70
43119;BME280;28729;49.838;8.650;2023-01-08T01:29:27;99033.69;;;11.28;92.82
43119;BME280;28729;49.838;8.650;2023-01-08T01:33:31;99028.72;;;11.30;92.08
43119;BME280;28729;49.838;8.650;2023-01-08T01:37:33;99027.31;;;11.27;91.59
43119;BME280;28729;49.838;8.650;2023-01-08T01:41:40;99026.50;;;11.27;91.74
43119;BME280;28729;49.838;8.650;2023-01-08T01:45:42;99033.94;;;11.21;92.43
43119;BME280;28729;49.838;8.650;2023-01-08T01:49:50;99037.50;;;11.06;97.05
43119;BME280;28729;49.838;8.650;2023-01-08T01:53:54;99031.44;;;11.04;99.01
43119;BME280;28729;49.838;8.650;2023-01-08T01:58:14;99027.78;;;10.88;100.00
43119;BME280;28729;49.838;8.650;2023-01-08T02:02:16;99020.88;;;10.76;100.00
43119;BME280;28729;49.838;8.650;2023-01-08T02:06:28;99031.03;;;10.70;100.00
43119;BME280;28729;49.838;8.650;2023-01-08T02:10:45;99025.19;;;10.51;100.00
43119;BME280;28729;49.838;8.650;2023-01-08T02:19:12;99006.69;;;10.41;100.00
43119;BME280;28729;49.838;8.650;2023-01-08T02:23:35;99001.69;;;10.33;100.00
43119;BME280;28729;49.838;8.650;2023-01-08T02:27:40;98989.03;;;10.32;100.00
43119;BME280;28729;49.838;8.650;2023-01-08T02:31:46;98993.41;;;10.28;100.00
43119;BME280;28729;49.838;8.650;2023-01-08T02:35:53;98989.53;;;10.29;100.00
43119;BME280;28729;49.838;8.650;2023-01-08T02:49:12;98980.38;;;10.18;100.00
43119;BME280;28729;49.838;8.650;2023-01-08T02:53:30;98976.00;;;10.17;100.00
43119;BME280;28729;49.838;8.650;2023-01-08T02:57:34;98971.03;;;10.14;100.00
43119;BME280;28729;49.838;8.650;2023-01-08T03:01:35;98966.84;;;10.07;100.00
43119;BME280;28729;49.838;8.650;2023-01-08T03:05:39;98968.53;;;10.13;100.00
43119;BME280;28729;49.838;8.650;2023-01-08T03:09:41;98969.06;;;10.10;100.00
43119;BME280;28729;49.838;8.650;2023-01-08T03:13:48;98960.22;;;10.08;100.00
43119;BME280;28729;49.838;8.650;2023-01-08T03:17:55;98961.91;;;10.09;100.00
43119;BME280;28729;49.838;8.650;2023-01-08T03:21:59;98949.75;;;10.04;100.00
43119;BME280;28729;49.838;8.650;2023-01-08T03:26:03;98940.41;;;10.06;100.00
43119;BME280;28729;49.838;8.650;2023-01-08T03:30:07;98944.53;;;10.03;100.00
43119;BME280;28729;49.838;8.650;2023-01-08T03:34:10;98938.44;;;10.01;100.00
43119;BME280;28729;49.838;8.650;2023-01-08T03:38:28;98923.88;;;10.00;100.00
43119;BME280;28729;49.838;8.650;2023-01-08T03:42:33;98917.25;;;10.01;100.00
43119;BME280;28729;49.838;8.650;2023-01-08T03:46:38;98901.31;;;10.03;100.00
43119;BME280;28729;49.838;8.650;2023-01-08T03:50:42;98900.75;;;10.01;100.00
43119;BME280;28729;49.838;8.650;2023-01-08T03:54:44;98897.75;;;10.03;100.00
43119;BME280;28729;49.838;8.650;2023-01-08T03:58:45;98888.38;;;10.04;100.00
43119;BME280;28729;49.838;8.650;2023-01-08T04:02:47;98888.13;;;10.06;100.00
43119;BME280;28729;49.838;8.650;2023-01-08T04:06:51;98880.69;;;10.06;100.00
43119;BME280;28729;49.838;8.650;2023-01-08T04:10:52;98871.03;;;10.03;100.00
43119;BME280;28729;49.838;8.650;2023-01-08T04:14:54;98879.56;;;9.97;100.00
43119;BME280;28729;49.838;8.650;2023-01-08T04:18:56;98865.47;;;9.93;100.00
43119;BME280;28729;49.838;8.650;2023-01-08T04:22:57;98866.56;;;9.92;100.00
43119;BME280;28729;49.838;8.650;2023-01-08T04:26:59;98861.38;;;9.91;100.00
43119;BME280;28729;49.838;8.650;2023-01-08T04:31:05;98856.41;;;9.93;100.00
43119;BME280;28729;49.838;8.650;2023-01-08T04:35:07;98854.47;;;9.93;100.00
43119;BME280;28729;49.838;8.650;2023-01-08T04:39:09;98848.16;;;9.88;100.00
43119;BME280;28729;49.838;8.650;2023-01-08T04:43:11;98861.03;;;9.87;100.00
43119;BME280;28729;49.838;8.650;2023-01-08T04:47:13;98855.53;;;9.82;100.00
43119;BME280;28729;49.838;8.650;2023-01-08T04:51:15;98854.41;;;9.73;100.00
43119;BME280;28729;49.838;8.650;2023-01-08T04:55:17;98850.25;;;9.70;100.00
43119;BME280;28729;49.838;8.650;2023-01-08T04:59:18;98851.63;;;9.68;100.00
43119;BME280;28729;49.838;8.650;2023-01-08T05:03:20;98849.66;;;9.63;100.00
43119;BME280;28729;49.838;8.650;2023-01-08T05:07:22;98857.63;;;9.59;100.00
43119;BME280;28729;49.838;8.650;2023-01-08T05:11:24;98855.97;;;9.58;100.00
43119;BME280;28729;49.838;8.650;2023-01-08T05:15:25;98853.75;;;9.55;100.00
43119;BME280;28729;49.838;8.650;2023-01-08T05:19:27;98846.56;;;9.54;100.00
43119;BME280;28729;49.838;8.650;2023-01-08T05:23:30;98842.47;;;9.52;100.00
43119;BME280;28729;49.838;8.650;2023-01-08T05:27:31;98841.63;;;9.51;100.00
43119;BME280;28729;49.838;8.650;2023-01-08T05:31:34;98846.56;;;9.54;100.00
43119;BME280;28729;49.838;8.650;2023-01-08T05:35:38;98859.78;;;9.52;100.00
43119;BME280;28729;49.838;8.650;2023-01-08T05:39:39;98855.41;;;9.56;100.00
43119;BME280;28729;49.838;8.650;2023-01-08T05:43:41;98861.19;;;9.60;100.00
43119;BME280;28729;49.838;8.650;2023-01-08T05:47:42;98854.53;;;9.51;100.00
43119;BME280;28729;49.838;8.650;2023-01-08T05:51:44;98856.44;;;9.45;100.00
43119;BME280;28729;49.838;8.650;2023-01-08T05:55:46;98847.88;;;9.42;100.00
43119;BME280;28729;49.838;8.650;2023-01-08T05:59:47;98848.72;;;9.42;100.00
43119;BME280;28729;49.838;8.650;2023-01-08T06:03:49;98850.59;;;9.36;100.00
43119;BME280;28729;49.838;8.650;2023-01-08T06:07:51;98838.75;;;9.31;100.00
43119;BME280;28729;49.838;8.650;2023-01-08T06:11:52;98838.44;;;9.27;100.00
43119;BME280;28729;49.838;8.650;2023-01-08T06:15:57;98845.00;;;9.21;100.00
43119;BME280;28729;49.838;8.650;2023-01-08T06:20:00;98852.19;;;9.22;100.00
43119;BME280;28729;49.838;8.650;2023-01-08T06:24:01;98837.59;;;9.22;100.00
43119;BME280;28729;49.838;8.650;2023-01-08T06:28:04;98832.94;;;9.22;100.00
43119;BME280;28729;49.838;8.650;2023-01-08T06:32:05;98832.94;;;9.27;100.00
43119;BME280;28729;49.838;8.650;2023-01-08T06:36:07;98842.59;;;9.30;100.00
43119;BME280;28729;49.838;8.650;2023-01-08T06:40:09;98839.31;;;9.33;100.00
43119;BME280;28729;49.838;8.650;2023-01-08T06:44:11;98841.50;;;9.31;100.00
43119;BME280;28729;49.838;8.650;2023-01-08T06:48:12;98857.78;;;9.38;100.00
43119;BME280;28729;49.838;8.650;2023-01-08T06:52:14;98851.44;;;9.37;100.00
43119;BME280;28729;49.838;8.650;2023-01-08T06:56:16;98854.22;;;9.42;100.00
43119;BME280;28729;49.838;8.650;2023-01-08T07:00:17;98860.28;;;9.44;100.00
43119;BME280;28729;49.838;8.650;2023-01-08T07:04:19;98863.56;;;9.41;100.00
43119;BME280;28729;49.838;8.650;2023-01-08T07:08:21;98861.00;;;9.29;100.00
43119;BME280;28729;49.838;8.650;2023-01-08T07:12:26;98868.69;;;9.27;100.00
43119;BME280;28729;49.838;8.650;2023-01-08T07:16:27;98866.44;;;9.19;100.00
43119;BME280;28729;49.838;8.650;2023-01-08T07:20:29;98861.44;;;9.11;100.00
43119;BME280;28729;49.838;8.650;2023-01-08T07:24:30;98867.72;;;9.06;100.00
43119;BME280;28729;49.838;8.650;2023-01-08T07:28:32;98862.22;;;9.06;100.00
43119;BME280;28729;49.838;8.650;2023-01-08T07:32:34;98862.50;;;9.05;100.00
43119;BME280;28729;49.838;8.650;2023-01-08T07:36:36;98862.22;;;9.06;100.00
43119;BME280;28729;49.838;8.650;2023-01-08T07:40:37;98863.38;;;9.10;100.00
43119;BME280;28729;49.838;8.650;2023-01-08T07:44:39;98867.16;;;9.04;100.00
43119;BME280;28729;49.838;8.650;2023-01-08T07:48:41;98864.72;;;9.08;100.00
43119;BME280;28729;49.838;8.650;2023-01-08T07:52:43;98868.34;;;9.13;100.00
43119;BME280;28729;49.838;8.650;2023-01-08T07:56:45;98865.59;;;9.13;100.00
43119;BME280;28729;49.838;8.650;2023-01-08T08:00:46;98868.53;;;9.07;100.00
43119;BME280;28729;49.838;8.650;2023-01-08T08:04:48;98862.50;;;9.05;100.00
43119;BME280;28729;49.838;8.650;2023-01-08T08:08:51;98871.56;;;9.05;100.00
43119;BME280;28729;49.838;8.650;2023-01-08T08:12:52;98860.56;;;9.05;100.00
43119;BME280;28729;49.838;8.650;2023-01-08T08:16:54;98869.94;;;9.09;100.00
43119;BME280;28729;49.838;8.650;2023-01-08T08:20:56;98865.00;;;9.11;100.00
43119;BME280;28729;49.838;8.650;2023-01-08T08:24:58;98871.81;;;9.04;100.00
43119;BME280;28729;49.838;8.650;2023-01-08T08:29:00;98874.03;;;9.07;100.00
43119;BME280;28729;49.838;8.650;2023-01-08T08:33:03;98866.59;;;9.02;100.00
43119;BME280;28729;49.838;8.650;2023-01-08T08:37:05;98855.31;;;9.04;100.00
43119;BME280;28729;49.838;8.650;2023-01-08T08:41:09;98869.06;;;9.04;100.00
43119;BME280;28729;49.838;8.650;2023-01-08T08:45:10;98869.91;;;9.04;100.00
43119;BME280;28729;49.838;8.650;2023-01-08T08:49:12;98867.94;;;9.00;100.00
43119;BME280;28729;49.838;8.650;2023-01-08T08:53:14;98855.84;;;9.01;100.00
43119;BME280;28729;49.838;8.650;2023-01-08T08:57:15;98865.19;;;9.00;100.00
43119;BME280;28729;49.838;8.650;2023-01-08T09:01:17;98864.09;;;9.01;100.00
43119;BME280;28729;49.838;8.650;2023-01-08T09:05:19;98869.06;;;9.04;100.00
43119;BME280;28729;49.838;8.650;2023-01-08T09:09:20;98871.50;;;9.00;100.00
43119;BME280;28729;49.838;8.650;2023-01-08T09:13:22;98861.66;;;9.04;100.00
43119;BME280;28729;49.838;8.650;2023-01-08T09:17:24;98855.31;;;9.04;100.00
43119;BME280;28729;49.838;8.650;2023-01-08T09:21:26;98853.19;;;9.11;100.00
43119;BME280;28729;49.838;8.650;2023-01-08T09:25:28;98867.81;;;9.17;100.00
43119;BME280;28729;49.838;8.650;2023-01-08T09:29:30;98857.34;;;9.19;100.00
43119;BME280;28729;49.838;8.650;2023-01-08T09:33:32;98865.59;;;9.19;100.00
43119;BME280;28729;49.838;8.650;2023-01-08T09:37:33;98866.47;;;9.24;100.00
43119;BME280;28729;49.838;8.650;2023-01-08T09:41:45;98860.72;;;9.31;100.00
43119;BME280;28729;49.838;8.650;2023-01-08T09:45:50;98866.56;;;9.40;100.00
43119;BME280;28729;49.838;8.650;2023-01-08T09:49:58;98856.97;;;9.42;100.00
43119;BME280;28729;49.838;8.650;2023-01-08T09:54:02;98844.34;;;9.46;100.00
43119;BME280;28729;49.838;8.650;2023-01-08T09:58:09;98852.59;;;9.46;100.00
43119;BME280;28729;49.838;8.650;2023-01-08T10:02:16;98846.56;;;9.49;100.00
43119;BME280;28729;49.838;8.650;2023-01-08T10:06:19;98837.25;;;9.55;100.00
43119;BME280;28729;49.838;8.650;2023-01-08T10:10:23;98835.91;;;9.63;100.00
43119;BME280;28729;49.838;8.650;2023-01-08T10:14:30;98837.28;;;9.66;100.00
43119;BME280;28729;49.838;8.650;2023-01-08T10:18:34;98848.91;;;9.73;100.00
43119;BME280;28729;49.838;8.650;2023-01-08T10:22:35;98842.28;;;9.74;100.00
43119;BME280;28729;49.838;8.650;2023-01-08T10:26:37;98837.88;;;9.68;100.00
43119;BME280;28729;49.838;8.650;2023-01-08T10:30:38;98831.84;;;9.76;100.00
43119;BME280;28729;49.838;8.650;2023-01-08T10:34:50;98829.88;;;9.66;100.00
43119;BME280;28729;49.838;8.650;2023-01-08T10:43:05;98823.59;;;9.81;100.00
43119;BME280;28729;49.838;8.650;2023-01-08T10:47:15;98811.25;;;9.89;100.00
43119;BME280;28729;49.838;8.650;2023-01-08T10:51:23;98814.09;;;10.09;100.00
43119;BME280;28729;49.838;8.650;2023-01-08T10:55:33;98805.34;;;10.27;100.00
43119;BME280;28729;49.838;8.650;2023-01-08T10:59:41;98804.00;;;10.35;100.00
43119;BME280;28729;49.838;8.650;2023-01-08T11:03:50;98791.34;;;10.44;100.00
43119;BME280;28729;49.838;8.650;2023-01-08T11:07:55;98781.97;;;10.51;100.00
43119;BME280;28729;49.838;8.650;2023-01-08T11:11:59;98788.59;;;10.75;100.00
43119;BME280;28729;49.838;8.650;2023-01-08T11:16:04;98766.25;;;10.92;100.00
43119;BME280;28729;49.838;8.650;2023-01-08T11:20:09;98756.56;;;11.00;100.00
43119;BME280;28729;49.838;8.650;2023-01-08T11:24:30;98750.53;;;10.92;100.00
43119;BME280;28729;49.838;8.650;2023-01-08T11:33:17;98739.47;;;11.03;100.00
43119;BME280;28729;49.838;8.650;2023-01-08T11:54:45;98671.00;;;11.35;100.00
43119;BME280;28729;49.838;8.650;2023-01-08T11:59:17;98678.69;;;11.44;100.00
43119;BME280;28729;49.838;8.650;2023-01-08T12:03:46;98698.88;;;11.34;100.00
43119;BME280;28729;49.838;8.650;2023-01-08T12:07:58;98685.59;;;11.36;100.00
43119;BME280;28729;49.838;8.650;2023-01-08T12:12:17;98677.06;;;11.32;100.00
43119;BME280;28729;49.838;8.650;2023-01-08T12:20:47;98672.63;;;11.41;100.00
43119;BME280;28729;49.838;8.650;2023-01-08T12:25:01;98657.44;;;11.44;100.00
43119;BME280;28729;49.838;8.650;2023-01-08T12:33:39;98648.22;;;11.69;100.00
43119;BME280;28729;49.838;8.650;2023-01-08T12:37:49;98654.50;;;11.75;100.00
43119;BME280;28729;49.838;8.650;2023-01-08T12:41:53;98648.81;;;11.56;100.00
43119;BME280;28729;49.838;8.650;2023-01-08T12:45:58;98657.41;;;11.54;100.00
43119;BME280;28729;49.838;8.650;2023-01-08T12:54:27;98637.28;;;11.49;100.00
43119;BME280;28729;49.838;8.650;2023-01-08T13:02:59;98629.38;;;11.27;100.00
43119;BME280;28729;49.838;8.650;2023-01-08T13:07:03;98631.66;;;11.09;100.00
43119;BME280;28729;49.838;8.650;2023-01-08T13:11:05;98619.81;;;11.09;100.00
43119;BME280;28729;49.838;8.650;2023-01-08T13:15:18;98620.94;;;11.08;100.00
43119;BME280;28729;49.838;8.650;2023-01-08T13:19:24;98615.09;;;11.14;100.00
43119;BME280;28729;49.838;8.650;2023-01-08T13:23:28;98616.78;;;11.15;100.00
43119;BME280;28729;49.838;8.650;2023-01-08T13:27:31;98617.78;;;11.30;100.00
43119;BME280;28729;49.838;8.650;2023-01-08T13:31:39;98622.72;;;11.33;100.00
43119;BME280;28729;49.838;8.650;2023-01-08T13:35:42;98602.09;;;11.30;100.00
43119;BME280;28729;49.838;8.650;2023-01-08T13:39:43;98605.69;;;11.26;100.00
43119;BME280;28729;49.838;8.650;2023-01-08T13:43:45;98587.53;;;11.20;100.00
43119;BME280;28729;49.838;8.650;2023-01-08T13:47:47;98590.94;;;10.96;100.00
43119;BME280;28729;49.838;8.650;2023-01-08T13:51:49;98581.53;;;11.07;100.00
43119;BME280;28729;49.838;8.650;2023-01-08T13:55:56;98585.38;;;11.06;100.00
43119;BME280;28729;49.838;8.650;2023-01-08T13:59:59;98577.56;;;11.24;100.00
43119;BME280;28729;49.838;8.650;2023-01-08T14:04:04;98582.00;;;11.25;100.00
43119;BME280;28729;49.838;8.650;2023-01-08T14:08:20;98581.66;;;11.31;100.00
43119;BME280;28729;49.838;8.650;2023-01-08T14:12:23;98562.59;;;11.35;100.00
43119;BME280;28729;49.838;8.650;2023-01-08T14:16:25;98573.75;;;11.20;100.00
43119;BME280;28729;49.838;8.650;2023-01-08T14:20:31;98564.91;;;11.17;100.00
43119;BME280;28729;49.838;8.650;2023-01-08T14:24:33;98566.91;;;11.07;100.00
43119;BME280;28729;49.838;8.650;2023-01-08T14:28:35;98562.22;;;11.12;100.00
43119;BME280;28729;49.838;8.650;2023-01-08T14:32:41;98560.53;;;11.11;100.00
43119;BME280;28729;49.838;8.650;2023-01-08T14:36:44;98569.09;;;11.10;100.00
43119;BME280;28729;49.838;8.650;2023-01-08T14:41:06;98564.19;;;10.97;100.00
43119;BME280;28729;49.838;8.650;2023-01-08T14:45:27;98549.59;;;10.96;100.00
43119;BME280;28729;49.838;8.650;2023-01-08T14:49:32;98554.84;;;10.98;100.00
43119;BME280;28729;49.838;8.650;2023-01-08T14:53:47;98541.59;;;10.94;100.00
43119;BME280;28729;49.838;8.650;2023-01-08T14:57:52;98537.75;;;10.90;100.00
43119;BME280;28729;49.838;8.650;2023-01-08T15:01:57;98537.53;;;10.82;100.00
43119;BME280;28729;49.838;8.650;2023-01-08T15:06:00;98540.03;;;10.73;100.00
43119;BME280;28729;49.838;8.650;2023-01-08T15:10:02;98539.78;;;10.75;100.00
43119;BME280;28729;49.838;8.650;2023-01-08T15:14:12;98530.94;;;10.83;100.00
43119;BME280;28729;49.838;8.650;2023-01-08T15:18:15;98519.34;;;10.86;100.00
43119;BME280;28729;49.838;8.650;2023-01-08T15:22:23;98512.47;;;10.78;100.00
43119;BME280;28729;49.838;8.650;2023-01-08T15:26:25;98508.13;;;10.62;100.00
43119;BME280;28729;49.838;8.650;2023-01-08T15:30:38;98519.75;;;10.48;100.00
43119;BME280;28729;49.838;8.650;2023-01-08T15:34:44;98516.75;;;10.35;100.00
43119;BME280;28729;49.838;8.650;2023-01-08T15:38:47;98495.56;;;10.20;100.00
43119;BME280;28729;49.838;8.650;2023-01-08T15:42:49;98501.94;;;10.10;100.00
43119;BME280;28729;49.838;8.650;2023-01-08T15:47:09;98497.25;;;10.11;100.00
43119;BME280;28729;49.838;8.650;2023-01-08T15:51:11;98508.81;;;10.08;100.00
43119;BME280;28729;49.838;8.650;2023-01-08T15:55:16;98506.38;;;10.01;100.00
43119;BME280;28729;49.838;8.650;2023-01-08T15:59:18;98502.25;;;9.93;100.00
43119;BME280;28729;49.838;8.650;2023-01-08T16:03:22;98497.06;;;9.81;100.00
43119;BME280;28729;49.838;8.650;2023-01-08T16:07:25;98496.22;;;9.91;100.00
43119;BME280;28729;49.838;8.650;2023-01-08T16:11:27;98489.31;;;9.94;100.00
43119;BME280;28729;49.838;8.650;2023-01-08T16:15:29;98484.09;;;9.92;100.00
43119;BME280;28729;49.838;8.650;2023-01-08T16:19:31;98478.59;;;9.87;100.00
43119;BME280;28729;49.838;8.650;2023-01-08T16:23:34;98478.63;;;9.82;100.00
43119;BME280;28729;49.838;8.650;2023-01-08T16:27:36;98475.88;;;9.82;100.00
43119;BME280;28729;49.838;8.650;2023-01-08T16:31:45;98482.19;;;9.88;100.00
43119;BME280;28729;49.838;8.650;2023-01-08T16:36:06;98483.28;;;9.97;100.00
43119;BME280;28729;49.838;8.650;2023-01-08T16:40:08;98472.78;;;10.09;100.00
43119;BME280;28729;49.838;8.650;2023-01-08T16:44:22;98459.28;;;10.18;100.00
43119;BME280;28729;49.838;8.650;2023-01-08T16:48:27;98463.66;;;10.24;100.00
43119;BME280;28729;49.838;8.650;2023-01-08T16:52:29;98462.84;;;10.23;100.00
43119;BME280;28729;49.838;8.650;2023-01-08T16:56:31;98453.19;;;10.31;100.00
43119;BME280;28729;49.838;8.650;2023-01-08T17:00:36;98451.53;;;10.30;100.00
43119;BME280;28729;49.838;8.650;2023-01-08T17:04:38;98447.94;;;10.35;100.00
43119;BME280;28729;49.838;8.650;2023-01-08T17:08:40;98446.59;;;10.32;100.00
43119;BME280;28729;49.838;8.650;2023-01-08T17:12:42;98436.09;;;10.39;100.00
43119;BME280;28729;49.838;8.650;2023-01-08T17:16:44;98428.94;;;10.33;100.00
43119;BME280;28729;49.838;8.650;2023-01-08T17:20:52;98430.81;;;10.43;100.00
43119;BME280;28729;49.838;8.650;2023-01-08T17:24:55;98414.59;;;10.41;100.00
43119;BME280;28729;49.838;8.650;2023-01-08T17:28:57;98417.31;;;10.46;100.00
43119;BME280;28729;49.838;8.650;2023-01-08T17:32:59;98410.41;;;10.49;100.00
43119;BME280;28729;49.838;8.650;2023-01-08T17:37:00;98406.00;;;10.53;100.00
43119;BME280;28729;49.838;8.650;2023-01-08T17:41:02;98393.06;;;10.54;100.00
43119;BME280;28729;49.838;8.650;2023-01-08T17:45:04;98378.72;;;10.52;100.00
43119;BME280;28729;49.838;8.650;2023-01-08T17:49:08;98373.88;;;10.33;100.00
43119;BME280;28729;49.838;8.650;2023-01-08T17:53:10;98373.94;;;10.18;100.00
43119;BME280;28729;49.838;8.650;2023-01-08T17:57:15;98366.25;;;10.04;100.00
43119;BME280;28729;49.838;8.650;2023-01-08T18:01:17;98354.22;;;9.90;100.00
43119;BME280;28729;49.838;8.650;2023-01-08T18:05:19;98349.88;;;9.79;100.00
43119;BME280;28729;49.838;8.650;2023-01-08T18:09:21;98352.38;;;9.70;100.00
43119;BME280;28729;49.838;8.650;2023-01-08T18:13:22;98337.81;;;9.59;100.00
43119;BME280;28729;49.838;8.650;2023-01-08T18:17:24;98350.50;;;9.50;100.00
43119;BME280;28729;49.838;8.650;2023-01-08T18:21:26;98346.09;;;9.44;100.00
43119;BME280;28729;49.838;8.650;2023-01-08T18:25:28;98346.94;;;9.40;100.00
43119;BME280;28729;49.838;8.650;2023-01-08T18:29:30;98353.84;;;9.32;100.00
43119;BME280;28729;49.838;8.650;2023-01-08T18:33:31;98353.81;;;9.47;100.00
43119;BME280;28729;49.838;8.650;2023-01-08T18:37:33;98344.41;;;9.64;100.00
43119;BME280;28729;49.838;8.650;2023-01-08T18:41:35;98342.44;;;9.74;100.00
43119;BME280;28729;49.838;8.650;2023-01-08T18:45:59;98338.88;;;9.74;100.00
43119;BME280;28729;49.838;8.650;2023-01-08T18:50:01;98342.72;;;9.78;100.00
43119;BME280;28729;49.838;8.650;2023-01-08T18:54:03;98335.56;;;9.82;100.00
43119;BME280;28729;49.838;8.650;2023-01-08T18:58:05;98313.50;;;9.87;100.00
43119;BME280;28729;49.838;8.650;2023-01-08T19:02:16;98312.16;;;9.85;100.00
43119;BME280;28729;49.838;8.650;2023-01-08T19:06:18;98297.84;;;9.82;100.00
43119;BME280;28729;49.838;8.650;2023-01-08T19:10:20;98294.56;;;9.80;100.00
43119;BME280;28729;49.838;8.650;2023-01-08T19:14:22;98302.81;;;9.75;100.00
43119;BME280;28729;49.838;8.650;2023-01-08T19:18:24;98298.16;;;9.76;100.00
43119;BME280;28729;49.838;8.650;2023-01-08T19:22:25;98292.09;;;9.79;100.00
43119;BME280;28729;49.838;8.650;2023-01-08T19:26:27;98278.84;;;9.86;100.00
43119;BME280;28729;49.838;8.650;2023-01-08T19:30:29;98273.34;;;9.91;100.00
43119;BME280;28729;49.838;8.650;2023-01-08T19:34:31;98266.44;;;9.94;100.00
43119;BME280;28729;49.838;8.650;2023-01-08T19:38:33;98259.81;;;10.00;100.00
43119;BME280;28729;49.838;8.650;2023-01-08T19:42:34;98260.03;;;10.09;100.00
43119;BME280;28729;49.838;8.650;2023-01-08T19:46:55;98252.03;;;10.12;100.00
43119;BME280;28729;49.838;8.650;2023-01-08T19:50:56;98244.56;;;10.18;100.00
43119;BME280;28729;49.838;8.650;2023-01-08T19:54:58;98226.91;;;10.24;100.00
43119;BME280;28729;49.838;8.650;2023-01-08T19:59:01;98212.00;;;10.25;100.00
43119;BME280;28729;49.838;8.650;2023-01-08T20:03:04;98212.31;;;10.23;100.00
43119;BME280;28729;49.838;8.650;2023-01-08T20:07:05;98207.91;;;10.22;100.00
43119;BME280;28729;49.838;8.650;2023-01-08T20:11:10;98196.09;;;10.17;100.00
43119;BME280;28729;49.838;8.650;2023-01-08T20:15:12;98191.47;;;10.12;100.00
43119;BME280;28729;49.838;8.650;2023-01-08T20:19:17;98185.66;;;10.14;100.00
43119;BME280;28729;49.838;8.650;2023-01-08T20:23:18;98180.16;;;10.14;100.00
43119;BME280;28729;49.838;8.650;2023-01-08T20:27:21;98174.16;;;10.12;100.00
43119;BME280;28729;49.838;8.650;2023-01-08T20:31:24;98163.16;;;10.07;100.00
43119;BME280;28729;49.838;8.650;2023-01-08T20:35:26;98156.59;;;10.02;100.00
43119;BME280;28729;49.838;8.650;2023-01-08T20:39:28;98143.94;;;10.01;100.00
43119;BME280;28729;49.838;8.650;2023-01-08T20:43:29;98145.06;;;10.00;100.00
43119;BME280;28729;49.838;8.650;2023-01-08T20:47:33;98140.38;;;9.96;100.00
43119;BME280;28729;49.838;8.650;2023-01-08T20:51:38;98147.34;;;9.88;100.00
43119;BME280;28729;49.838;8.650;2023-01-08T20:55:42;98142.41;;;9.85;100.00
43119;BME280;28729;49.838;8.650;2023-01-08T20:59:44;98129.16;;;9.87;100.00
43119;BME280;28729;49.838;8.650;2023-01-08T21:03:47;98115.16;;;9.89;100.00
43119;BME280;28729;49.838;8.650;2023-01-08T21:07:49;98112.88;;;9.96;100.00
43119;BME280;28729;49.838;8.650;2023-01-08T21:11:50;98110.34;;;10.04;100.00
43119;BME280;28729;49.838;8.650;2023-01-08T21:15:55;98110.53;;;10.13;100.00
43119;BME280;28729;49.838;8.650;2023-01-08T21:19:57;98102.53;;;10.17;100.00
43119;BME280;28729;49.838;8.650;2023-01-08T21:24:01;98096.97;;;10.22;100.00
43119;BME280;28729;49.838;8.650;2023-01-08T21:28:07;98087.00;;;10.26;100.00
43119;BME280;28729;49.838;8.650;2023-01-08T21:32:09;98082.03;;;10.33;100.00
43119;BME280;28729;49.838;8.650;2023-01-08T21:36:13;98070.13;;;10.38;100.00
43119;BME280;28729;49.838;8.650;2023-01-08T21:40:15;98052.53;;;10.39;100.00
43119;BME280;28729;49.838;8.650;2023-01-08T21:44:20;98055.28;;;10.39;100.00
43119;BME280;28729;49.838;8.650;2023-01-08T21:48:41;98048.06;;;10.43;100.00
43119;BME280;28729;49.838;8.650;2023-01-08T21:52:43;98032.84;;;10.51;100.00
43119;BME280;28729;49.838;8.650;2023-01-08T21:57:05;98029.16;;;10.60;100.00
43119;BME280;28729;49.838;8.650;2023-01-08T22:01:08;98014.78;;;10.63;100.00
43119;BME280;28729;49.838;8.650;2023-01-08T22:05:10;98004.53;;;10.69;100.00
43119;BME280;28729;49.838;8.650;2023-01-08T22:09:12;98005.88;;;10.71;100.00
43119;BME280;28729;49.838;8.650;2023-01-08T22:13:13;98000.06;;;10.73;100.00
43119;BME280;28729;49.838;8.650;2023-01-08T22:17:15;97995.13;;;10.70;100.00
43119;BME280;28729;49.838;8.650;2023-01-08T22:21:17;97993.19;;;10.70;100.00